Time;durP1;ratioP1;P1;durP2;ratioP2;P2;SDS_P1;SDS_P2;PMS_P1;PMS_P2;Temp;Humidity;BMP_temperature;BMP_pressure;BME280_temperature;BME280_humidity;BME280_pressure;Samples;Min_cycle;Max_cycle;Signal;HPM_P1;HPM_P2
2022/04/14 00:02:07;;;;;;;16.02;9.82;;;11.30;99.90;;;;;;5072251;28;20135;-50
2022/04/14 00:04:36;;;;;;;15.50;9.55;;;11.30;99.90;;;;;;5073683;28;20040;-47
2022/04/14 00:07:02;;;;;;;20.75;10.82;;;11.30;99.90;;;;;;5073404;28;20083;-47
2022/04/14 00:09:28;;;;;;;18.15;10.35;;;11.20;99.90;;;;;;5073182;28;20485;-48
2022/04/14 00:11:57;;;;;;;18.20;10.73;;;11.20;99.90;;;;;;5055292;28;20496;-46
2022/04/14 00:14:23;;;;;;;19.52;10.63;;;11.20;99.90;;;;;;5073221;28;20067;-47
2022/04/14 00:16:49;;;;;;;16.63;9.55;;;11.20;99.90;;;;;;5072975;28;20370;-47
2022/04/14 00:19:14;;;;;;;20.60;11.27;;;11.10;99.90;;;;;;5072988;28;20068;-47
2022/04/14 00:21:40;;;;;;;16.83;10.90;;;11.00;99.90;;;;;;5072988;28;20066;-47
2022/04/14 00:24:06;;;;;;;17.63;10.57;;;11.00;99.90;;;;;;5059218;28;20037;-47
2022/04/14 00:26:31;;;;;;;17.77;10.68;;;11.00;99.90;;;;;;5053090;28;20041;-46
2022/04/14 00:28:57;;;;;;;19.50;11.50;;;11.00;99.90;;;;;;5052583;28;20493;-47
2022/04/14 00:31:23;;;;;;;17.98;10.82;;;10.90;99.90;;;;;;5052899;28;20041;-47
2022/04/14 00:33:49;;;;;;;18.55;10.63;;;10.90;99.90;;;;;;5052519;28;20088;-46
2022/04/14 00:36:16;;;;;;;18.00;11.18;;;10.80;99.90;;;;;;5068028;28;20070;-47
2022/04/14 00:38:41;;;;;;;18.40;10.40;;;10.90;99.90;;;;;;5052868;28;20093;-47
2022/04/14 00:41:07;;;;;;;20.10;11.05;;;10.90;99.90;;;;;;5052590;28;20499;-46
2022/04/14 00:43:34;;;;;;;19.20;10.98;;;10.90;99.90;;;;;;5051616;28;20091;-47
2022/04/14 00:46:02;;;;;;;20.60;12.07;;;10.80;99.90;;;;;;5051594;28;20052;-47
2022/04/14 00:48:28;;;;;;;19.42;11.07;;;10.70;99.90;;;;;;5052325;28;20409;-47
2022/04/14 00:50:55;;;;;;;18.52;11.48;;;10.80;99.90;;;;;;5052678;28;20416;-48
2022/04/14 00:53:22;;;;;;;20.80;12.57;;;10.70;99.90;;;;;;5068951;28;20040;-47
2022/04/14 00:55:49;;;;;;;22.90;13.25;;;10.70;99.90;;;;;;5072558;28;20111;-48
2022/04/14 00:58:15;;;;;;;24.90;13.23;;;10.60;99.90;;;;;;5072244;28;20119;-49
2022/04/14 01:00:40;;;;;;;20.70;13.85;;;10.70;99.90;;;;;;5071789;28;20127;-46
2022/04/14 01:03:06;;;;;;;27.85;14.30;;;10.60;99.90;;;;;;5070950;28;20036;-46
2022/04/14 01:05:33;;;;;;;20.85;12.68;;;10.60;99.90;;;;;;5072378;28;20041;-47
2022/04/14 01:07:59;;;;;;;20.98;13.63;;;10.60;99.90;;;;;;5072362;28;20040;-48
2022/04/14 01:10:25;;;;;;;22.00;14.25;;;10.70;99.90;;;;;;5072208;28;20054;-49
2022/04/14 01:12:53;;;;;;;26.08;16.13;;;10.60;99.90;;;;;;5072108;28;20044;-47
2022/04/14 01:15:18;;;;;;;24.17;15.00;;;10.50;99.90;;;;;;5070828;28;20033;-47
2022/04/14 01:17:45;;;;;;;22.02;14.88;;;10.50;99.90;;;;;;5071983;28;20078;-48
2022/04/14 01:20:13;;;;;;;26.42;16.02;;;10.50;99.90;;;;;;5072001;28;20501;-47
2022/04/14 01:22:56;;;;;;;25.38;16.00;;;10.50;99.90;;;;;;5070425;28;20098;-47
2022/04/14 01:25:22;;;;;;;24.00;16.13;;;10.40;99.90;;;;;;5052011;28;20092;-47
2022/04/14 01:27:50;;;;;;;24.52;15.82;;;10.30;99.90;;;;;;5051820;28;20083;-48
2022/04/14 01:30:16;;;;;;;28.35;16.27;;;10.40;99.90;;;;;;5051798;28;20106;-49
2022/04/14 01:32:41;;;;;;;27.15;15.05;;;10.20;99.90;;;;;;5051897;28;20447;-47
2022/04/14 01:35:07;;;;;;;25.27;16.38;;;10.20;99.90;;;;;;5052010;28;20048;-47
2022/04/14 01:37:33;;;;;;;24.08;15.88;;;10.20;99.90;;;;;;5051897;28;20056;-48
2022/04/14 01:39:59;;;;;;;26.05;16.50;;;10.20;99.90;;;;;;5051815;28;20033;-47
2022/04/14 01:42:24;;;;;;;27.17;17.23;;;10.10;99.90;;;;;;5051687;28;20044;-47
2022/04/14 01:44:50;;;;;;;23.90;15.65;;;10.10;99.90;;;;;;5067127;28;20041;-47
2022/04/14 01:47:16;;;;;;;24.60;16.33;;;10.10;99.90;;;;;;5051915;28;20033;-46
2022/04/14 01:49:42;;;;;;;26.92;17.48;;;10.10;99.90;;;;;;5051713;28;20033;-48
2022/04/14 01:52:08;;;;;;;28.05;18.08;;;10.00;99.90;;;;;;5058178;28;20120;-47
2022/04/14 01:54:34;;;;;;;27.60;17.20;;;10.00;99.90;;;;;;5071797;28;20040;-47
2022/04/14 01:56:59;;;;;;;27.50;18.00;;;10.00;99.90;;;;;;5071652;28;20032;-48
2022/04/14 01:59:25;;;;;;;28.15;18.02;;;10.00;99.90;;;;;;5071781;28;20390;-47
2022/04/14 02:01:51;;;;;;;27.92;18.25;;;10.00;99.90;;;;;;5071565;28;20047;-47
2022/04/14 02:04:16;;;;;;;26.40;17.63;;;10.00;99.90;;;;;;5072036;28;20048;-47
2022/04/14 02:06:42;;;;;;;30.80;18.27;;;10.00;99.90;;;;;;5071496;28;20040;-47
2022/04/14 02:09:08;;;;;;;26.25;17.23;;;9.90;99.90;;;;;;5071452;28;20045;-47
2022/04/14 02:11:34;;;;;;;29.02;18.83;;;10.00;99.90;;;;;;5070510;28;20047;-47
2022/04/14 02:13:59;;;;;;;30.90;19.10;;;9.90;99.90;;;;;;5075446;28;20037;-46
2022/04/14 02:16:25;;;;;;;30.20;18.75;;;9.80;99.90;;;;;;5075314;28;20037;-47
2022/04/14 02:18:51;;;;;;;30.67;19.85;;;9.80;99.90;;;;;;5075497;28;20054;-48
2022/04/14 02:21:16;;;;;;;31.60;20.08;;;9.80;99.90;;;;;;5075271;28;20046;-47
2022/04/14 02:23:42;;;;;;;31.95;20.20;;;9.80;99.90;;;;;;5064724;28;20059;-50
2022/04/14 02:26:08;;;;;;;31.80;18.90;;;9.80;99.90;;;;;;5055149;28;20041;-49
2022/04/14 02:28:33;;;;;;;31.65;19.60;;;9.70;99.90;;;;;;5055006;28;20633;-47
2022/04/14 02:30:59;;;;;;;30.63;19.58;;;9.80;99.90;;;;;;5054013;28;20067;-49
2022/04/14 02:33:25;;;;;;;27.13;18.85;;;9.70;99.90;;;;;;5055053;28;20060;-48
2022/04/14 02:35:51;;;;;;;28.60;19.67;;;9.70;99.90;;;;;;5070530;28;20045;-49
2022/04/14 02:38:16;;;;;;;28.70;19.23;;;9.50;99.90;;;;;;5055123;28;20463;-48
2022/04/14 02:40:42;;;;;;;27.13;19.73;;;9.50;99.90;;;;;;5054856;28;20055;-47
2022/04/14 02:43:08;;;;;;;28.90;18.98;;;9.50;99.90;;;;;;5055245;28;20076;-47
2022/04/14 02:45:33;;;;;;;26.80;18.50;;;9.50;99.90;;;;;;5055072;28;20126;-48
2022/04/14 02:47:59;;;;;;;28.95;19.38;;;9.50;99.90;;;;;;5054884;28;20180;-47
2022/04/14 02:50:25;;;;;;;32.65;19.77;;;9.50;99.90;;;;;;5054866;28;20037;-47
2022/04/14 02:52:51;;;;;;;34.03;20.10;;;9.50;99.90;;;;;;5066816;28;20040;-50
2022/04/14 02:55:18;;;;;;;32.10;20.33;;;9.40;99.90;;;;;;5074693;28;20124;-50
2022/04/14 02:57:44;;;;;;;29.35;19.95;;;9.50;99.90;;;;;;5075043;28;20052;-50
2022/04/14 03:00:10;;;;;;;32.13;21.60;;;9.40;99.90;;;;;;5074740;28;20085;-47
2022/04/14 03:02:39;;;;;;;33.80;20.60;;;9.50;99.90;;;;;;5074590;28;20036;-47
2022/04/14 03:05:06;;;;;;;30.48;20.50;;;9.40;99.90;;;;;;5074651;28;20076;-47
2022/04/14 03:07:32;;;;;;;31.77;22.13;;;9.30;99.90;;;;;;5074376;28;20118;-45
2022/04/14 03:09:58;;;;;;;34.00;21.60;;;9.30;99.90;;;;;;5074372;28;20032;-46
2022/04/14 03:12:24;;;;;;;31.35;19.98;;;9.20;99.90;;;;;;5073140;28;20041;-45
2022/04/14 03:14:50;;;;;;;38.90;22.27;;;9.20;99.90;;;;;;5074245;28;20093;-45
2022/04/14 03:17:16;;;;;;;33.05;20.90;;;9.20;99.90;;;;;;5074136;28;20040;-46
2022/04/14 03:19:42;;;;;;;26.85;17.45;;;9.10;99.90;;;;;;5074153;28;20037;-46
2022/04/14 03:22:08;;;;;;;35.53;22.45;;;9.00;99.90;;;;;;5074401;28;20441;-46
2022/04/14 03:24:34;;;;;;;30.83;20.50;;;8.90;99.90;;;;;;5054744;28;20132;-46
2022/04/14 03:27:00;;;;;;;35.25;23.25;;;9.00;99.90;;;;;;5069775;28;20120;-46
2022/04/14 03:29:32;;;;;;;34.90;23.17;;;9.10;99.90;;;;;;5052718;28;20053;-47
2022/04/14 03:31:59;;;;;;;37.63;22.55;;;9.00;99.90;;;;;;5053957;28;20044;-47
2022/04/14 03:34:24;;;;;;;30.17;21.45;;;9.00;99.90;;;;;;5054036;28;20048;-46
2022/04/14 03:36:50;;;;;;;36.63;22.42;;;9.00;99.90;;;;;;5054026;28;20239;-46
2022/04/14 03:39:17;;;;;;;32.88;21.58;;;8.90;99.90;;;;;;5053813;28;20068;-45
2022/04/14 03:41:43;;;;;;;39.28;22.20;;;9.00;99.90;;;;;;5053966;28;20060;-46
2022/04/14 03:44:08;;;;;;;33.78;22.55;;;8.90;99.90;;;;;;5053849;28;20041;-46
2022/04/14 03:46:34;;;;;;;35.17;22.77;;;8.90;99.90;;;;;;5053801;28;20041;-50
2022/04/14 03:49:00;;;;;;;34.38;23.02;;;8.80;99.90;;;;;;5053631;28;20041;-49
2022/04/14 03:51:26;;;;;;;38.10;25.25;;;8.80;99.90;;;;;;5054076;28;20037;-48
2022/04/14 03:53:52;;;;;;;39.97;24.98;;;8.90;99.90;;;;;;5073471;28;20516;-48
2022/04/14 03:56:17;;;;;;;38.63;25.45;;;8.80;99.90;;;;;;5073715;28;20044;-46
2022/04/14 03:58:43;;;;;;;39.90;25.73;;;8.90;99.90;;;;;;5073652;28;20051;-45
2022/04/14 04:01:09;;;;;;;40.88;26.08;;;8.80;99.90;;;;;;5073387;28;20044;-46
2022/04/14 04:03:34;;;;;;;37.45;24.35;;;8.80;99.90;;;;;;5073457;28;20046;-45
2022/04/14 04:06:00;;;;;;;41.22;25.73;;;8.80;99.90;;;;;;5073423;28;20075;-48
2022/04/14 04:08:25;;;;;;;43.42;26.75;;;8.80;99.90;;;;;;5073109;28;20477;-47
2022/04/14 04:10:51;;;;;;;38.78;25.23;;;8.80;99.90;;;;;;5073500;28;20041;-46
2022/04/14 04:13:17;;;;;;;39.10;24.88;;;8.80;99.90;;;;;;5073275;28;20417;-50
2022/04/14 04:15:42;;;;;;;39.92;26.33;;;8.70;99.90;;;;;;5073232;28;20037;-48
2022/04/14 04:18:08;;;;;;;41.58;24.90;;;8.70;99.90;;;;;;5073085;28;20044;-49
2022/04/14 04:20:34;;;;;;;35.83;25.63;;;8.80;99.90;;;;;;5073017;28;20435;-50
2022/04/14 04:23:04;;;;;;;41.60;25.55;;;8.70;99.90;;;;;;5068081;28;20055;-45
2022/04/14 04:25:30;;;;;;;38.25;24.35;;;8.60;99.90;;;;;;5053285;28;20406;-47
2022/04/14 04:27:56;;;;;;;37.13;24.88;;;8.70;99.90;;;;;;5052798;28;20127;-45
2022/04/14 04:30:21;;;;;;;43.67;25.88;;;8.60;99.90;;;;;;5052874;28;20072;-46
2022/04/14 04:32:48;;;;;;;38.72;26.20;;;8.60;99.90;;;;;;5052624;28;20136;-48
2022/04/14 04:35:14;;;;;;;37.28;25.15;;;8.60;99.90;;;;;;5052018;28;20124;-46
2022/04/14 04:37:40;;;;;;;40.97;27.23;;;8.60;99.90;;;;;;5052662;28;20123;-47
2022/04/14 04:40:07;;;;;;;35.00;23.23;;;8.70;99.90;;;;;;5052781;28;20036;-46
2022/04/14 04:42:32;;;;;;;38.55;24.58;;;8.50;99.90;;;;;;5052756;28;20060;-46
2022/04/14 04:44:58;;;;;;;36.28;24.85;;;8.60;99.90;;;;;;5052674;28;20041;-49
2022/04/14 04:47:24;;;;;;;37.10;24.70;;;8.50;99.90;;;;;;5052530;28;20511;-48
2022/04/14 04:49:50;;;;;;;41.47;27.13;;;8.60;99.90;;;;;;5051363;28;20036;-47
2022/04/14 04:52:16;;;;;;;36.03;24.25;;;8.60;99.90;;;;;;5060179;28;20435;-51
2022/04/14 04:54:42;;;;;;;43.70;27.67;;;8.50;99.90;;;;;;5072554;28;20032;-46
2022/04/14 04:57:08;;;;;;;37.17;24.50;;;8.60;99.90;;;;;;5072454;28;20082;-48
2022/04/14 04:59:34;;;;;;;44.30;25.88;;;8.50;99.90;;;;;;5072439;28;20493;-48
2022/04/14 05:02:00;;;;;;;45.60;26.92;;;8.50;99.90;;;;;;5072384;28;20451;-50
2022/04/14 05:04:25;;;;;;;39.40;28.38;;;8.50;99.90;;;;;;5072395;28;20066;-48
2022/04/14 05:06:51;;;;;;;41.53;26.48;;;8.60;99.90;;;;;;5072225;28;20036;-51
2022/04/14 05:09:17;;;;;;;43.70;27.27;;;8.50;99.90;;;;;;5072220;28;20048;-47
2022/04/14 05:11:43;;;;;;;40.70;26.17;;;8.50;99.90;;;;;;5070917;28;20093;-48
2022/04/14 05:14:09;;;;;;;44.70;27.58;;;8.50;99.90;;;;;;5070618;28;20506;-46
2022/04/14 05:16:36;;;;;;;39.17;26.58;;;8.60;99.90;;;;;;5070534;28;20125;-47
2022/04/14 05:19:02;;;;;;;41.42;27.58;;;8.60;99.90;;;;;;5069279;28;20052;-47
2022/04/14 05:21:27;;;;;;;41.33;26.90;;;8.50;99.90;;;;;;5070391;28;20044;-49
2022/04/14 05:23:53;;;;;;;41.00;25.50;;;8.60;99.90;;;;;;5058334;28;20055;-47
2022/04/14 05:26:19;;;;;;;47.35;27.77;;;8.60;99.90;;;;;;5050486;28;20052;-47
2022/04/14 05:28:44;;;;;;;41.97;29.13;;;8.60;99.90;;;;;;5050459;28;20378;-48
2022/04/14 05:31:10;;;;;;;45.55;28.25;;;8.80;99.90;;;;;;5049124;28;20060;-46
2022/04/14 05:33:36;;;;;;;41.75;28.48;;;8.80;99.90;;;;;;5050137;28;20052;-46
2022/04/14 05:36:02;;;;;;;40.50;26.52;;;8.80;99.90;;;;;;5050294;28;20051;-46
2022/04/14 05:38:27;;;;;;;45.53;28.80;;;8.70;99.90;;;;;;5050639;28;20098;-46
2022/04/14 05:40:54;;;;;;;44.70;28.05;;;8.70;99.90;;;;;;5065816;28;20048;-46
2022/04/14 05:43:28;;;;;;;42.35;26.42;;;8.90;99.90;;;;;;5050300;28;20055;-47
2022/04/14 05:45:54;;;;;;;45.38;29.20;;;8.90;99.90;;;;;;5051042;28;20044;-46
2022/04/14 05:48:20;;;;;;;44.60;29.02;;;8.80;99.90;;;;;;5054103;28;20060;-47
2022/04/14 05:50:49;;;;;;;41.80;27.15;;;8.90;99.90;;;;;;5053936;28;20505;-48
2022/04/14 05:53:22;;;;;;;43.83;27.92;;;9.00;99.90;;;;;;5069898;28;20480;-48
2022/04/14 05:55:47;;;;;;;42.60;28.40;;;9.00;99.90;;;;;;5074153;28;20075;-46
2022/04/14 05:58:13;;;;;;;42.15;29.00;;;9.10;99.90;;;;;;5074188;28;20080;-45
2022/04/14 06:00:40;;;;;;;41.85;28.35;;;9.10;99.90;;;;;;5073818;28;20123;-46
2022/04/14 06:03:06;;;;;;;41.78;27.95;;;9.10;99.90;;;;;;5073825;28;20143;-51
2022/04/14 06:05:32;;;;;;;45.35;29.83;;;9.10;99.90;;;;;;5074068;28;20158;-48
2022/04/14 06:07:58;;;;;;;42.50;29.38;;;9.20;99.90;;;;;;5073910;28;20040;-49
2022/04/14 06:10:25;;;;;;;42.63;29.00;;;9.30;99.90;;;;;;5073881;28;20400;-46
2022/04/14 06:12:54;;;;;;;42.85;28.63;;;9.30;99.90;;;;;;5073873;28;20064;-47
2022/04/14 06:15:20;;;;;;;42.63;27.42;;;9.40;99.90;;;;;;5073733;28;20426;-46
2022/04/14 06:17:45;;;;;;;43.28;28.48;;;9.50;99.90;;;;;;5073597;28;20051;-45
2022/04/14 06:20:13;;;;;;;43.88;28.58;;;9.60;99.90;;;;;;5074109;28;20392;-45
2022/04/14 06:22:40;;;;;;;46.28;28.08;;;9.60;99.90;;;;;;5072257;28;20484;-47
2022/04/14 06:25:13;;;;;;;42.10;27.92;;;9.60;99.90;;;;;;5053704;28;20397;-46
2022/04/14 06:27:45;;;;;;;40.42;28.25;;;9.50;99.90;;;;;;5053680;28;20528;-46
2022/04/14 06:30:14;;;;;;;42.78;28.45;;;9.70;99.90;;;;;;5053574;28;20041;-49
2022/04/14 06:32:40;;;;;;;43.15;29.67;;;9.90;99.90;;;;;;5053079;28;20064;-50
2022/04/14 06:35:08;;;;;;;44.80;30.77;;;9.80;99.90;;;;;;5052162;28;20037;-46
2022/04/14 06:37:34;;;;;;;47.25;29.42;;;9.80;99.90;;;;;;5053041;28;20052;-50
2022/04/14 06:40:00;;;;;;;41.67;29.90;;;10.00;99.90;;;;;;5068830;28;20040;-47
2022/04/14 06:42:26;;;;;;;38.88;27.45;;;10.00;99.90;;;;;;5068753;28;20394;-48
2022/04/14 06:44:53;;;;;;;41.90;28.60;;;10.00;99.90;;;;;;5053304;28;20036;-47
2022/04/14 06:47:21;;;;;;;41.28;28.08;;;10.20;99.90;;;;;;5053268;28;20076;-46
2022/04/14 06:49:46;;;;;;;41.20;28.00;;;10.30;99.90;;;;;;5068448;28;20060;-46
2022/04/14 06:52:12;;;;;;;42.67;29.17;;;10.30;99.90;;;;;;5060015;28;20034;-47
2022/04/14 06:54:38;;;;;;;42.30;29.25;;;10.40;99.90;;;;;;5073129;28;20033;-47
2022/04/14 06:57:04;;;;;;;40.75;27.77;;;10.40;99.90;;;;;;5073459;28;20488;-46
2022/04/14 06:59:30;;;;;;;40.72;27.95;;;10.50;99.90;;;;;;5072571;28;20049;-48
2022/04/14 07:01:55;;;;;;;38.42;26.30;;;10.60;99.90;;;;;;5072956;28;20052;-46
2022/04/14 07:04:21;;;;;;;38.95;25.83;;;10.60;99.90;;;;;;5073024;28;20043;-46
2022/04/14 07:06:47;;;;;;;37.92;28.38;;;10.80;99.90;;;;;;5072892;28;20490;-49
2022/04/14 07:09:13;;;;;;;37.95;25.25;;;10.80;99.90;;;;;;5071418;28;20040;-47
2022/04/14 07:11:39;;;;;;;42.55;27.58;;;11.00;99.90;;;;;;5072726;28;20041;-47
2022/04/14 07:14:04;;;;;;;38.75;26.25;;;11.00;99.90;;;;;;5073033;28;20427;-51
2022/04/14 07:16:30;;;;;;;38.22;27.92;;;11.00;99.90;;;;;;5072804;28;20599;-46
2022/04/14 07:18:56;;;;;;;40.08;26.88;;;11.10;99.90;;;;;;5071420;28;20040;-49
2022/04/14 07:21:21;;;;;;;39.38;26.58;;;11.20;99.90;;;;;;5072291;28;20076;-47
2022/04/14 07:23:47;;;;;;;41.70;27.15;;;11.40;99.90;;;;;;5045420;28;20079;-48
2022/04/14 07:26:13;;;;;;;38.08;27.23;;;11.30;99.90;;;;;;5052505;28;20126;-50
2022/04/14 07:28:39;;;;;;;36.35;25.48;;;11.40;99.90;;;;;;5052377;28;20048;-48
2022/04/14 07:31:05;;;;;;;34.03;25.17;;;11.50;99.90;;;;;;5067640;28;20472;-49
2022/04/14 07:33:31;;;;;;;33.75;23.58;;;11.60;99.90;;;;;;5052311;28;20053;-49
2022/04/14 07:35:57;;;;;;;34.47;25.27;;;11.70;99.90;;;;;;5052383;28;20060;-51
2022/04/14 07:38:22;;;;;;;36.85;25.73;;;11.60;99.90;;;;;;5052195;28;20037;-51
2022/04/14 07:40:49;;;;;;;33.35;24.38;;;11.70;99.90;;;;;;5050928;28;20052;-46
2022/04/14 07:43:15;;;;;;;39.00;25.75;;;11.70;99.90;;;;;;5052141;28;20045;-46
2022/04/14 07:45:42;;;;;;;35.83;25.15;;;11.80;99.90;;;;;;5052179;28;20083;-47
2022/04/14 07:48:09;;;;;;;33.17;24.17;;;11.90;99.90;;;;;;5052132;28;20049;-46
2022/04/14 07:50:34;;;;;;;35.70;25.52;;;12.00;99.90;;;;;;5051962;28;20041;-47
2022/04/14 07:53:00;;;;;;;35.80;23.75;;;12.00;99.90;;;;;;5065676;28;20036;-47
2022/04/14 07:55:31;;;;;;;32.10;23.45;;;12.20;99.90;;;;;;5071795;28;20131;-49
2022/04/14 07:58:01;;;;;;;34.15;23.48;;;12.20;99.90;;;;;;5071457;28;20056;-46
2022/04/14 08:00:27;;;;;;;32.45;22.48;;;12.20;99.90;;;;;;5071668;28;20093;-46
2022/04/14 08:02:56;;;;;;;31.40;21.00;;;12.50;99.90;;;;;;5070710;28;20549;-46
2022/04/14 08:05:31;;;;;;;33.88;23.35;;;12.50;99.90;;;;;;5071691;28;20044;-46
2022/04/14 08:07:57;;;;;;;30.75;21.42;;;12.60;99.90;;;;;;5071684;28;20056;-48
2022/04/14 08:10:23;;;;;;;30.73;21.92;;;12.80;99.90;;;;;;5071785;28;20351;-47
2022/04/14 08:12:49;;;;;;;31.35;20.52;;;12.80;99.90;;;;;;5071441;28;20188;-46
2022/04/14 08:15:15;;;;;;;28.67;20.38;;;12.80;99.90;;;;;;5072171;28;20037;-47
2022/04/14 08:17:42;;;;;;;27.85;21.15;;;12.90;99.90;;;;;;5069982;28;20067;-46
2022/04/14 08:20:10;;;;;;;31.23;20.85;;;13.00;99.90;;;;;;5071401;28;20060;-47
2022/04/14 08:22:54;;;;;;;30.15;20.13;;;13.10;99.90;;;;;;5071030;28;20032;-48
2022/04/14 08:25:39;;;;;;;30.92;20.77;;;13.20;99.90;;;;;;5052114;28;20045;-48
2022/04/14 08:28:05;;;;;;;26.25;18.25;;;13.40;99.90;;;;;;5067719;28;20084;-47
2022/04/14 08:30:33;;;;;;;27.23;19.05;;;13.30;99.90;;;;;;5045021;28;20477;-46
2022/04/14 08:33:01;;;;;;;28.90;18.75;;;13.50;99.90;;;;;;5062469;28;20092;-47
2022/04/14 08:35:27;;;;;;;25.40;17.73;;;13.50;99.90;;;;;;5043374;28;20053;-47
2022/04/14 08:37:54;;;;;;;22.02;14.85;;;13.50;99.90;;;;;;5047422;28;20124;-46
2022/04/14 08:40:23;;;;;;;20.55;14.13;;;13.50;99.90;;;;;;5052635;28;20048;-48
2022/04/14 08:43:00;;;;;;;22.02;15.13;;;13.60;99.90;;;;;;5052653;28;20464;-49
2022/04/14 08:45:31;;;;;;;20.17;14.60;;;13.90;99.90;;;;;;5051533;28;20114;-49
2022/04/14 08:47:59;;;;;;;22.40;15.02;;;13.80;99.90;;;;;;5052615;28;20037;-47
2022/04/14 08:50:25;;;;;;;22.25;14.13;;;13.80;99.90;;;;;;5052445;28;20041;-47
2022/04/14 08:52:51;;;;;;;21.63;14.95;;;13.90;99.90;;;;;;5064436;28;20039;-47
2022/04/14 08:55:18;;;;;;;20.40;13.57;;;14.00;99.90;;;;;;5072097;28;20036;-47
2022/04/14 08:57:44;;;;;;;21.02;13.60;;;14.00;99.90;;;;;;5072173;28;20070;-47
2022/04/14 09:00:13;;;;;;;24.08;15.57;;;14.20;99.90;;;;;;5072095;28;20389;-47
2022/04/14 09:02:43;;;;;;;18.73;12.43;;;14.30;99.90;;;;;;5071625;28;20488;-48
2022/04/14 09:05:09;;;;;;;29.95;14.93;;;14.30;99.90;;;;;;5071966;28;20045;-48
2022/04/14 09:07:35;;;;;;;20.88;14.43;;;14.50;99.90;;;;;;5070730;28;20485;-47
2022/04/14 09:10:01;;;;;;;23.17;14.23;;;14.50;99.90;;;;;;5071467;28;20040;-47
2022/04/14 09:12:28;;;;;;;19.45;13.23;;;14.50;99.90;;;;;;5071589;28;20393;-50
2022/04/14 09:14:54;;;;;;;20.98;13.00;;;14.70;99.90;;;;;;5071997;28;20033;-51
2022/04/14 09:17:20;;;;;;;20.70;13.88;;;14.80;99.90;;;;;;5071890;28;20519;-48
2022/04/14 09:19:46;;;;;;;21.83;13.90;;;14.70;99.90;;;;;;5070746;28;20044;-47
2022/04/14 09:22:13;;;;;;;18.38;12.00;;;14.80;99.90;;;;;;5057602;28;20094;-51
2022/04/14 09:24:55;;;;;;;20.85;12.90;;;14.70;99.90;;;;;;5033589;28;20092;-49
2022/04/14 09:27:27;;;;;;;18.48;11.75;;;14.70;99.90;;;;;;5030667;28;20068;-51
2022/04/14 09:29:54;;;;;;;18.00;12.43;;;14.80;99.90;;;;;;5031937;28;20041;-52
2022/04/14 09:32:42;;;;;;;19.25;13.70;;;15.00;99.90;;;;;;5031977;28;20112;-48
2022/04/14 09:35:20;;;;;;;19.98;14.00;;;15.00;99.90;;;;;;5031665;28;20046;-48
2022/04/14 09:37:59;;;;;;;19.10;13.23;;;14.90;99.90;;;;;;5031862;28;20466;-48
2022/04/14 09:40:30;;;;;;;20.83;13.80;;;15.20;99.90;;;;;;5032377;28;20041;-49
2022/04/14 09:42:55;;;;;;;21.02;13.68;;;15.10;99.90;;;;;;5031447;28;20505;-49
2022/04/14 09:45:28;;;;;;;20.17;14.30;;;15.10;99.90;;;;;;5046967;28;20045;-49
2022/04/14 09:47:55;;;;;;;21.35;14.57;;;15.30;99.90;;;;;;5031374;28;20045;-48
2022/04/14 09:50:40;;;;;;;21.83;14.15;;;15.40;99.90;;;;;;5031635;28;20136;-49
2022/04/14 09:53:15;;;;;;;18.38;12.85;;;15.40;99.90;;;;;;5059552;28;20048;-55
2022/04/14 09:55:49;;;;;;;19.77;13.07;;;15.60;99.90;;;;;;5071800;28;20040;-51
2022/04/14 09:58:19;;;;;;;15.95;10.88;;;15.70;99.90;;;;;;5071871;28;20045;-54
2022/04/14 10:00:53;;;;;;;11.93;6.70;;;15.70;99.90;;;;;;5071545;28;20626;-50
2022/04/14 10:03:21;;;;;;;12.65;6.68;;;15.60;99.90;;;;;;5071871;28;20396;-50
2022/04/14 10:05:54;;;;;;;12.68;6.55;;;15.70;99.90;;;;;;5071501;28;20051;-51
2022/04/14 10:08:22;;;;;;;12.93;6.93;;;15.80;99.90;;;;;;5071388;28;20041;-50
2022/04/14 10:10:49;;;;;;;14.05;7.43;;;16.00;99.90;;;;;;5071597;28;20382;-50
2022/04/14 10:13:17;;;;;;;12.68;6.25;;;15.90;99.90;;;;;;5071882;28;20068;-51
2022/04/14 10:15:53;;;;;;;12.15;5.65;;;15.90;99.90;;;;;;5071744;28;20036;-58
2022/04/14 10:18:19;;;;;;;11.43;6.32;;;16.10;99.90;;;;;;5071640;28;20052;-62
2022/04/14 10:20:46;;;;;;;11.07;6.43;;;16.20;99.90;;;;;;5070200;28;20055;-60
2022/04/14 10:23:14;;;;;;;10.63;5.43;;;16.20;99.90;;;;;;5063838;28;20136;-56
2022/04/14 10:25:41;;;;;;;9.05;4.88;;;16.10;99.90;;;;;;5050152;28;20055;-55
2022/04/14 10:28:14;;;;;;;9.25;4.93;;;16.10;99.90;;;;;;5051520;28;20056;-55
2022/04/14 10:30:55;;;;;;;9.90;5.50;;;16.30;99.90;;;;;;5051397;28;20503;-55
2022/04/14 10:33:21;;;;;;;10.65;5.03;;;16.30;99.90;;;;;;5052687;28;20076;-55
2022/04/14 10:35:48;;;;;;;10.95;6.63;;;16.40;99.90;;;;;;5055057;28;20049;-55
2022/04/14 10:38:36;;;;;;;12.48;6.63;;;16.50;99.90;;;;;;5055264;28;20076;-55
2022/04/14 10:41:23;;;;;;;10.02;4.70;;;16.40;99.90;;;;;;5055095;28;20037;-55
2022/04/14 10:43:49;;;;;;;13.23;6.82;;;16.10;99.90;;;;;;5054964;28;20288;-55
2022/04/14 10:46:16;;;;;;;15.00;8.77;;;16.10;99.90;;;;;;5054745;28;20037;-55
2022/04/14 10:48:43;;;;;;;15.65;9.10;;;16.20;99.90;;;;;;5054725;28;20478;-55
2022/04/14 10:51:27;;;;;;;15.18;8.68;;;16.20;99.90;;;;;;5055152;28;20059;-54
2022/04/14 10:54:09;;;;;;;13.45;6.70;;;16.00;99.90;;;;;;5033591;28;20091;-55
2022/04/14 10:56:38;;;;;;;12.52;7.45;;;15.90;99.90;;;;;;5034697;28;20048;-55
2022/04/14 10:59:43;;;;;;;12.45;6.78;;;15.60;99.90;;;;;;5034578;28;20056;-54
2022/04/14 11:02:09;;;;;;;12.13;5.28;;;15.70;99.90;;;;;;4973403;28;20050;-55
2022/04/14 11:04:52;;;;;;;11.13;5.07;;;16.00;99.90;;;;;;4973345;28;20137;-55
2022/04/14 11:07:22;;;;;;;9.13;4.47;;;15.90;99.90;;;;;;5001201;28;20054;-54
2022/04/14 11:09:49;;;;;;;10.85;4.72;;;15.90;99.90;;;;;;5034556;28;20092;-55
2022/04/14 11:12:17;;;;;;;10.77;5.95;;;16.00;99.90;;;;;;5034315;28;20037;-54
2022/04/14 11:14:56;;;;;;;12.27;6.80;;;16.10;99.90;;;;;;5033259;28;20033;-54
2022/04/14 11:17:31;;;;;;;12.57;7.35;;;16.00;99.90;;;;;;5034287;28;20044;-53
2022/04/14 11:20:12;;;;;;;14.73;6.90;;;16.00;99.90;;;;;;5034552;28;20041;-53
2022/04/14 11:23:03;;;;;;;14.20;7.18;;;16.20;99.90;;;;;;5035845;28;20084;-54
2022/04/14 11:25:49;;;;;;;10.77;5.15;;;16.20;99.90;;;;;;5054162;28;20083;-52
2022/04/14 11:28:15;;;;;;;11.30;6.47;;;16.30;99.90;;;;;;5052838;28;20041;-54
2022/04/14 11:30:41;;;;;;;14.02;6.75;;;16.30;99.90;;;;;;5054065;28;20089;-54
2022/04/14 11:33:20;;;;;;;15.82;7.85;;;16.30;99.90;;;;;;5054037;28;20049;-52
2022/04/14 11:35:46;;;;;;;10.40;5.80;;;16.10;99.90;;;;;;5054043;28;20139;-54
2022/04/14 11:38:52;;;;;;;10.98;5.38;;;15.90;99.90;;;;;;5053915;28;20447;-55
2022/04/14 11:41:43;;;;;;;12.40;6.15;;;16.10;99.90;;;;;;5053981;28;20139;-51
2022/04/14 11:44:13;;;;;;;12.35;6.07;;;16.10;99.90;;;;;;5053937;28;20045;-55
2022/04/14 11:46:41;;;;;;;11.43;6.63;;;15.90;99.90;;;;;;5053485;28;20048;-55
2022/04/14 11:49:09;;;;;;;13.05;6.70;;;16.10;99.90;;;;;;5053628;28;20049;-55
2022/04/14 11:52:05;;;;;;;9.23;4.40;;;16.20;99.90;;;;;;5054091;28;20033;-54
2022/04/14 11:54:31;;;;;;;10.23;5.30;;;16.30;99.90;;;;;;5042880;28;20048;-55
2022/04/14 11:57:07;;;;;;;9.95;5.13;;;16.30;99.90;;;;;;5073057;28;20040;-55
2022/04/14 11:59:46;;;;;;;9.73;4.38;;;16.20;99.90;;;;;;5073313;28;20040;-55
2022/04/14 12:02:23;;;;;;;10.52;4.78;;;16.10;99.90;;;;;;5073523;28;20299;-56
2022/04/14 12:04:51;;;;;;;9.68;5.20;;;16.10;99.90;;;;;;5073414;28;20044;-55
2022/04/14 12:07:18;;;;;;;8.40;4.40;;;16.30;99.90;;;;;;5073214;28;20087;-56
2022/04/14 12:09:45;;;;;;;10.23;4.20;;;16.40;99.90;;;;;;5071706;28;20053;-55
2022/04/14 12:12:13;;;;;;;8.65;4.20;;;16.10;99.90;;;;;;5072793;28;20093;-55
2022/04/14 12:14:46;;;;;;;9.27;4.47;;;16.10;99.90;;;;;;5073233;28;20051;-55
2022/04/14 12:17:13;;;;;;;9.95;5.18;;;16.00;99.90;;;;;;5073091;28;20110;-55
2022/04/14 12:19:44;;;;;;;8.77;4.28;;;15.90;99.90;;;;;;5073012;28;20101;-55
2022/04/14 12:22:10;;;;;;;10.73;5.85;;;15.90;99.90;;;;;;5073264;28;20253;-55
2022/04/14 12:24:36;;;;;;;11.35;5.05;;;15.70;99.90;;;;;;5053466;28;20056;-55
2022/04/14 12:27:03;;;;;;;11.57;5.82;;;15.80;99.90;;;;;;5051699;28;20041;-55
2022/04/14 12:29:28;;;;;;;12.63;5.78;;;15.70;99.90;;;;;;5052128;28;20045;-55
2022/04/14 12:32:16;;;;;;;10.90;5.63;;;15.70;99.90;;;;;;5052101;28;20029;-55
2022/04/14 12:34:45;;;;;;;13.77;6.30;;;15.70;99.90;;;;;;5052593;28;20047;-55
2022/04/14 12:37:13;;;;;;;13.20;6.82;;;15.70;99.90;;;;;;5045299;28;20549;-55
2022/04/14 12:40:11;;;;;;;12.00;6.68;;;15.50;99.90;;;;;;5043288;28;20049;-54